sensor_id;sensor_type;location;lat;lon;timestamp;temperature;humidity
1592;DHT22;789;51.612;7.510;2024-03-22T00:00:39;12.20;1.00
1592;DHT22;789;51.612;7.510;2024-03-22T00:03:04;12.20;1.00
1592;DHT22;789;51.612;7.510;2024-03-22T00:05:31;12.20;1.00
1592;DHT22;789;51.612;7.510;2024-03-22T00:07:57;12.10;1.00
1592;DHT22;789;51.612;7.510;2024-03-22T00:10:24;12.10;1.00
1592;DHT22;789;51.612;7.510;2024-03-22T00:12:50;12.20;1.00
1592;DHT22;789;51.612;7.510;2024-03-22T00:15:17;12.10;1.00
1592;DHT22;789;51.612;7.510;2024-03-22T00:17:45;12.10;1.00
1592;DHT22;789;51.612;7.510;2024-03-22T00:20:12;12.10;1.00
1592;DHT22;789;51.612;7.510;2024-03-22T00:22:37;12.00;1.00
1592;DHT22;789;51.612;7.510;2024-03-22T00:25:05;11.90;1.00
1592;DHT22;789;51.612;7.510;2024-03-22T00:27:32;11.70;1.00
1592;DHT22;789;51.612;7.510;2024-03-22T00:29:59;11.70;1.00
1592;DHT22;789;51.612;7.510;2024-03-22T00:32:24;11.70;1.00
1592;DHT22;789;51.612;7.510;2024-03-22T00:34:53;11.70;1.00
1592;DHT22;789;51.612;7.510;2024-03-22T00:37:18;11.60;1.00
1592;DHT22;789;51.612;7.510;2024-03-22T00:39:45;11.60;1.00
1592;DHT22;789;51.612;7.510;2024-03-22T00:42:11;11.60;1.00
1592;DHT22;789;51.612;7.510;2024-03-22T00:44:38;11.80;1.00
1592;DHT22;789;51.612;7.510;2024-03-22T00:47:04;11.60;1.00
1592;DHT22;789;51.612;7.510;2024-03-22T00:49:31;11.60;1.00
1592;DHT22;789;51.612;7.510;2024-03-22T00:51:58;11.70;1.00
1592;DHT22;789;51.612;7.510;2024-03-22T00:54:25;11.50;1.00
1592;DHT22;789;51.612;7.510;2024-03-22T00:56:50;11.70;1.00
1592;DHT22;789;51.612;7.510;2024-03-22T00:59:17;11.50;1.00
1592;DHT22;789;51.612;7.510;2024-03-22T01:01:43;11.50;1.00
1592;DHT22;789;51.612;7.510;2024-03-22T01:04:10;11.50;1.00
1592;DHT22;789;51.612;7.510;2024-03-22T01:06:36;11.50;1.00
1592;DHT22;789;51.612;7.510;2024-03-22T01:09:04;11.50;1.00
1592;DHT22;789;51.612;7.510;2024-03-22T01:11:30;11.60;1.00
1592;DHT22;789;51.612;7.510;2024-03-22T01:13:57;12.40;1.00
1592;DHT22;789;51.612;7.510;2024-03-22T01:16:22;11.60;1.00
1592;DHT22;789;51.612;7.510;2024-03-22T01:18:49;11.70;1.00
1592;DHT22;789;51.612;7.510;2024-03-22T01:21:15;11.80;1.00
1592;DHT22;789;51.612;7.510;2024-03-22T01:23:42;11.90;1.00
1592;DHT22;789;51.612;7.510;2024-03-22T01:26:09;11.90;1.00
1592;DHT22;789;51.612;7.510;2024-03-22T01:28:36;12.00;1.00
1592;DHT22;789;51.612;7.510;2024-03-22T01:31:01;12.00;1.00
1592;DHT22;789;51.612;7.510;2024-03-22T01:33:28;12.00;1.00
1592;DHT22;789;51.612;7.510;2024-03-22T01:35:54;12.10;1.00
1592;DHT22;789;51.612;7.510;2024-03-22T01:38:21;12.00;1.00
1592;DHT22;789;51.612;7.510;2024-03-22T01:40:47;12.00;1.00
1592;DHT22;789;51.612;7.510;2024-03-22T01:43:15;11.90;1.00
1592;DHT22;789;51.612;7.510;2024-03-22T01:45:41;12.00;1.00
1592;DHT22;789;51.612;7.510;2024-03-22T01:48:08;12.00;1.00
1592;DHT22;789;51.612;7.510;2024-03-22T01:50:34;12.00;1.00
1592;DHT22;789;51.612;7.510;2024-03-22T01:53:01;12.00;1.00
1592;DHT22;789;51.612;7.510;2024-03-22T01:55:27;12.10;1.00
1592;DHT22;789;51.612;7.510;2024-03-22T01:57:55;12.00;1.00
1592;DHT22;789;51.612;7.510;2024-03-22T02:00:23;12.00;1.00
1592;DHT22;789;51.612;7.510;2024-03-22T02:02:50;12.10;1.00
1592;DHT22;789;51.612;7.510;2024-03-22T02:05:17;12.00;1.00
1592;DHT22;789;51.612;7.510;2024-03-22T02:07:44;12.00;1.00
1592;DHT22;789;51.612;7.510;2024-03-22T02:10:11;12.00;1.00
1592;DHT22;789;51.612;7.510;2024-03-22T02:12:38;12.10;1.00
1592;DHT22;789;51.612;7.510;2024-03-22T02:15:05;12.10;1.00
1592;DHT22;789;51.612;7.510;2024-03-22T02:17:34;12.20;1.00
1592;DHT22;789;51.612;7.510;2024-03-22T02:20:00;12.20;1.00
1592;DHT22;789;51.612;7.510;2024-03-22T02:22:27;12.20;1.00
1592;DHT22;789;51.612;7.510;2024-03-22T02:24:55;12.20;1.00
1592;DHT22;789;51.612;7.510;2024-03-22T02:27:22;12.20;1.00
1592;DHT22;789;51.612;7.510;2024-03-22T02:29:47;12.20;1.00
1592;DHT22;789;51.612;7.510;2024-03-22T02:32:15;12.80;1.00
1592;DHT22;789;51.612;7.510;2024-03-22T02:34:41;12.20;1.00
1592;DHT22;789;51.612;7.510;2024-03-22T02:37:08;12.30;1.00
1592;DHT22;789;51.612;7.510;2024-03-22T02:39:34;12.40;1.00
1592;DHT22;789;51.612;7.510;2024-03-22T02:42:02;12.40;1.00
1592;DHT22;789;51.612;7.510;2024-03-22T02:44:27;12.40;1.00
1592;DHT22;789;51.612;7.510;2024-03-22T02:46:54;12.40;1.00
1592;DHT22;789;51.612;7.510;2024-03-22T02:49:21;12.50;1.00
1592;DHT22;789;51.612;7.510;2024-03-22T02:51:48;12.40;1.00
1592;DHT22;789;51.612;7.510;2024-03-22T02:54:14;12.40;1.00
1592;DHT22;789;51.612;7.510;2024-03-22T02:56:41;12.50;1.00
1592;DHT22;789;51.612;7.510;2024-03-22T02:59:08;12.80;1.00
1592;DHT22;789;51.612;7.510;2024-03-22T03:01:35;12.50;1.00
1592;DHT22;789;51.612;7.510;2024-03-22T03:04:00;12.60;1.00
1592;DHT22;789;51.612;7.510;2024-03-22T03:06:27;12.60;1.00
1592;DHT22;789;51.612;7.510;2024-03-22T03:08:53;12.60;1.00
1592;DHT22;789;51.612;7.510;2024-03-22T03:11:19;12.60;1.00
1592;DHT22;789;51.612;7.510;2024-03-22T03:13:45;12.60;1.00
1592;DHT22;789;51.612;7.510;2024-03-22T03:16:13;12.70;1.00
1592;DHT22;789;51.612;7.510;2024-03-22T03:18:39;12.70;1.00
1592;DHT22;789;51.612;7.510;2024-03-22T03:21:06;12.70;1.00
1592;DHT22;789;51.612;7.510;2024-03-22T03:23:33;12.70;1.00
1592;DHT22;789;51.612;7.510;2024-03-22T03:26:00;12.70;1.00
1592;DHT22;789;51.612;7.510;2024-03-22T03:28:26;12.60;1.00
1592;DHT22;789;51.612;7.510;2024-03-22T03:30:53;12.70;1.00
1592;DHT22;789;51.612;7.510;2024-03-22T03:33:20;12.70;1.00
1592;DHT22;789;51.612;7.510;2024-03-22T03:35:46;12.70;1.00
1592;DHT22;789;51.612;7.510;2024-03-22T03:38:13;12.70;1.00
1592;DHT22;789;51.612;7.510;2024-03-22T03:40:39;12.70;1.00
1592;DHT22;789;51.612;7.510;2024-03-22T03:43:05;12.60;1.00
1592;DHT22;789;51.612;7.510;2024-03-22T03:45:32;12.70;1.00
1592;DHT22;789;51.612;7.510;2024-03-22T03:47:58;12.50;1.00
1592;DHT22;789;51.612;7.510;2024-03-22T03:50:26;12.50;1.00
1592;DHT22;789;51.612;7.510;2024-03-22T03:52:51;12.60;1.00
1592;DHT22;789;51.612;7.510;2024-03-22T03:55:18;12.50;1.00
1592;DHT22;789;51.612;7.510;2024-03-22T03:57:44;12.50;1.00
1592;DHT22;789;51.612;7.510;2024-03-22T04:00:11;12.50;1.00
1592;DHT22;789;51.612;7.510;2024-03-22T04:02:37;12.50;1.00
1592;DHT22;789;51.612;7.510;2024-03-22T04:05:04;12.40;1.00
1592;DHT22;789;51.612;7.510;2024-03-22T04:07:32;12.50;1.00
1592;DHT22;789;51.612;7.510;2024-03-22T04:09:58;12.50;1.00
1592;DHT22;789;51.612;7.510;2024-03-22T04:12:25;12.30;1.00
1592;DHT22;789;51.612;7.510;2024-03-22T04:14:52;12.40;1.00
1592;DHT22;789;51.612;7.510;2024-03-22T04:17:18;12.40;1.00
1592;DHT22;789;51.612;7.510;2024-03-22T04:19:45;12.40;1.00
1592;DHT22;789;51.612;7.510;2024-03-22T04:22:10;12.30;1.00
1592;DHT22;789;51.612;7.510;2024-03-22T04:24:38;12.30;1.00
1592;DHT22;789;51.612;7.510;2024-03-22T04:27:04;12.20;1.00
1592;DHT22;789;51.612;7.510;2024-03-22T04:29:32;12.20;1.00
1592;DHT22;789;51.612;7.510;2024-03-22T04:31:58;12.20;1.00
1592;DHT22;789;51.612;7.510;2024-03-22T04:34:25;12.20;1.00
1592;DHT22;789;51.612;7.510;2024-03-22T04:36:51;12.20;1.00
1592;DHT22;789;51.612;7.510;2024-03-22T04:39:19;12.20;1.00
1592;DHT22;789;51.612;7.510;2024-03-22T04:41:47;12.30;1.00
1592;DHT22;789;51.612;7.510;2024-03-22T04:44:14;12.30;1.00
1592;DHT22;789;51.612;7.510;2024-03-22T04:46:41;12.30;1.00
1592;DHT22;789;51.612;7.510;2024-03-22T04:49:07;12.40;1.00
1592;DHT22;789;51.612;7.510;2024-03-22T04:51:34;12.40;1.00
1592;DHT22;789;51.612;7.510;2024-03-22T04:53:59;12.30;1.00
1592;DHT22;789;51.612;7.510;2024-03-22T04:56:29;12.40;1.00
1592;DHT22;789;51.612;7.510;2024-03-22T04:58:57;12.40;1.00
1592;DHT22;789;51.612;7.510;2024-03-22T05:01:24;12.50;1.00
1592;DHT22;789;51.612;7.510;2024-03-22T05:03:49;12.50;1.00
1592;DHT22;789;51.612;7.510;2024-03-22T05:06:17;12.60;1.00
1592;DHT22;789;51.612;7.510;2024-03-22T05:08:43;12.60;1.00
1592;DHT22;789;51.612;7.510;2024-03-22T05:11:09;12.60;1.00
1592;DHT22;789;51.612;7.510;2024-03-22T05:13:35;12.60;1.00
1592;DHT22;789;51.612;7.510;2024-03-22T05:16:04;12.60;1.00
1592;DHT22;789;51.612;7.510;2024-03-22T05:18:30;12.60;1.00
1592;DHT22;789;51.612;7.510;2024-03-22T05:20:56;12.60;1.00
1592;DHT22;789;51.612;7.510;2024-03-22T05:23:22;13.30;1.00
1592;DHT22;789;51.612;7.510;2024-03-22T05:25:49;12.70;1.00
1592;DHT22;789;51.612;7.510;2024-03-22T05:28:15;12.70;1.00
1592;DHT22;789;51.612;7.510;2024-03-22T05:30:41;12.60;1.00
1592;DHT22;789;51.612;7.510;2024-03-22T05:33:08;12.60;1.00
1592;DHT22;789;51.612;7.510;2024-03-22T05:35:35;12.60;1.00
1592;DHT22;789;51.612;7.510;2024-03-22T05:38:01;12.60;1.00
1592;DHT22;789;51.612;7.510;2024-03-22T05:40:28;12.60;1.00
1592;DHT22;789;51.612;7.510;2024-03-22T05:42:53;12.60;1.00
1592;DHT22;789;51.612;7.510;2024-03-22T05:45:20;12.60;1.00
1592;DHT22;789;51.612;7.510;2024-03-22T05:47:46;12.60;1.00
1592;DHT22;789;51.612;7.510;2024-03-22T05:50:15;12.70;1.00
1592;DHT22;789;51.612;7.510;2024-03-22T05:52:40;12.90;1.00
1592;DHT22;789;51.612;7.510;2024-03-22T05:55:07;12.70;1.00
1592;DHT22;789;51.612;7.510;2024-03-22T05:57:33;12.70;1.00
1592;DHT22;789;51.612;7.510;2024-03-22T06:00:00;12.80;1.00
1592;DHT22;789;51.612;7.510;2024-03-22T06:02:25;12.90;1.00
1592;DHT22;789;51.612;7.510;2024-03-22T06:04:52;12.90;1.00
1592;DHT22;789;51.612;7.510;2024-03-22T06:07:19;13.00;1.00
1592;DHT22;789;51.612;7.510;2024-03-22T06:09:46;13.10;1.00
1592;DHT22;789;51.612;7.510;2024-03-22T06:12:12;13.10;1.00
1592;DHT22;789;51.612;7.510;2024-03-22T06:14:39;13.10;1.00
1592;DHT22;789;51.612;7.510;2024-03-22T06:17:05;13.20;1.00
1592;DHT22;789;51.612;7.510;2024-03-22T06:19:32;13.20;1.00
1592;DHT22;789;51.612;7.510;2024-03-22T06:21:58;13.20;1.00
1592;DHT22;789;51.612;7.510;2024-03-22T06:24:26;13.20;1.00
1592;DHT22;789;51.612;7.510;2024-03-22T06:27:01;13.20;1.00
1592;DHT22;789;51.612;7.510;2024-03-22T06:29:28;13.20;1.00
1592;DHT22;789;51.612;7.510;2024-03-22T06:31:54;13.30;1.00
1592;DHT22;789;51.612;7.510;2024-03-22T06:34:21;13.30;1.00
1592;DHT22;789;51.612;7.510;2024-03-22T06:36:46;13.40;1.00
1592;DHT22;789;51.612;7.510;2024-03-22T06:39:13;13.40;1.00
1592;DHT22;789;51.612;7.510;2024-03-22T06:41:41;13.50;1.00
1592;DHT22;789;51.612;7.510;2024-03-22T06:44:08;13.50;1.00
1592;DHT22;789;51.612;7.510;2024-03-22T06:46:37;13.50;1.00
1592;DHT22;789;51.612;7.510;2024-03-22T06:49:05;13.50;1.00
1592;DHT22;789;51.612;7.510;2024-03-22T06:51:31;13.50;1.00
1592;DHT22;789;51.612;7.510;2024-03-22T06:53:57;13.50;1.00
1592;DHT22;789;51.612;7.510;2024-03-22T06:56:23;13.50;1.00
1592;DHT22;789;51.612;7.510;2024-03-22T06:58:51;13.50;1.00
1592;DHT22;789;51.612;7.510;2024-03-22T07:01:17;13.60;1.00
1592;DHT22;789;51.612;7.510;2024-03-22T07:03:46;13.70;1.00
1592;DHT22;789;51.612;7.510;2024-03-22T07:06:14;13.70;1.00
1592;DHT22;789;51.612;7.510;2024-03-22T07:08:41;13.80;1.00
1592;DHT22;789;51.612;7.510;2024-03-22T07:11:07;13.80;1.00
1592;DHT22;789;51.612;7.510;2024-03-22T07:13:34;13.80;1.00
1592;DHT22;789;51.612;7.510;2024-03-22T07:16:01;13.80;1.00
1592;DHT22;789;51.612;7.510;2024-03-22T07:18:28;13.90;1.00
1592;DHT22;789;51.612;7.510;2024-03-22T07:20:54;13.90;1.00
1592;DHT22;789;51.612;7.510;2024-03-22T07:23:21;14.00;1.00
1592;DHT22;789;51.612;7.510;2024-03-22T07:25:47;14.10;1.00
1592;DHT22;789;51.612;7.510;2024-03-22T07:28:14;13.60;1.00
1592;DHT22;789;51.612;7.510;2024-03-22T07:30:39;14.30;1.00
1592;DHT22;789;51.612;7.510;2024-03-22T07:33:07;14.30;1.00
1592;DHT22;789;51.612;7.510;2024-03-22T07:35:35;14.40;1.00
1592;DHT22;789;51.612;7.510;2024-03-22T07:38:01;15.00;1.00
1592;DHT22;789;51.612;7.510;2024-03-22T07:40:27;14.60;1.00
1592;DHT22;789;51.612;7.510;2024-03-22T07:42:54;14.80;1.00
1592;DHT22;789;51.612;7.510;2024-03-22T07:45:20;14.90;1.00
1592;DHT22;789;51.612;7.510;2024-03-22T07:47:47;15.10;1.00
1592;DHT22;789;51.612;7.510;2024-03-22T07:50:15;15.30;1.00
1592;DHT22;789;51.612;7.510;2024-03-22T07:52:45;15.70;1.00
1592;DHT22;789;51.612;7.510;2024-03-22T07:55:10;15.70;1.00
1592;DHT22;789;51.612;7.510;2024-03-22T07:57:37;15.70;1.00
1592;DHT22;789;51.612;7.510;2024-03-22T08:00:04;15.80;1.00
1592;DHT22;789;51.612;7.510;2024-03-22T08:02:32;15.60;1.00
1592;DHT22;789;51.612;7.510;2024-03-22T08:04:57;15.50;1.00
1592;DHT22;789;51.612;7.510;2024-03-22T08:07:25;15.70;1.00
1592;DHT22;789;51.612;7.510;2024-03-22T08:09:51;15.30;1.00
1592;DHT22;789;51.612;7.510;2024-03-22T08:12:21;15.30;1.00
1592;DHT22;789;51.612;7.510;2024-03-22T08:14:47;15.20;1.00
1592;DHT22;789;51.612;7.510;2024-03-22T08:17:13;15.20;1.00
1592;DHT22;789;51.612;7.510;2024-03-22T08:19:40;15.20;1.00
1592;DHT22;789;51.612;7.510;2024-03-22T08:22:07;15.30;1.00
1592;DHT22;789;51.612;7.510;2024-03-22T08:24:34;15.50;1.00
1592;DHT22;789;51.612;7.510;2024-03-22T08:27:01;15.60;1.00
1592;DHT22;789;51.612;7.510;2024-03-22T08:29:27;15.70;1.00
1592;DHT22;789;51.612;7.510;2024-03-22T08:31:53;15.70;1.00
1592;DHT22;789;51.612;7.510;2024-03-22T08:34:20;15.70;1.00
1592;DHT22;789;51.612;7.510;2024-03-22T08:36:47;15.70;1.00
1592;DHT22;789;51.612;7.510;2024-03-22T08:39:13;15.60;1.00
1592;DHT22;789;51.612;7.510;2024-03-22T08:41:42;15.60;1.00
1592;DHT22;789;51.612;7.510;2024-03-22T08:44:08;15.40;1.00
1592;DHT22;789;51.612;7.510;2024-03-22T08:46:35;15.60;1.00
1592;DHT22;789;51.612;7.510;2024-03-22T08:49:01;15.20;1.00
1592;DHT22;789;51.612;7.510;2024-03-22T08:51:28;15.30;1.00
1592;DHT22;789;51.612;7.510;2024-03-22T08:53:55;15.20;1.00
1592;DHT22;789;51.612;7.510;2024-03-22T08:56:23;15.20;1.00
1592;DHT22;789;51.612;7.510;2024-03-22T08:58:50;15.20;1.00
1592;DHT22;789;51.612;7.510;2024-03-22T09:01:17;15.30;1.00
1592;DHT22;789;51.612;7.510;2024-03-22T09:03:42;15.30;1.00
1592;DHT22;789;51.612;7.510;2024-03-22T09:06:11;15.50;1.00
1592;DHT22;789;51.612;7.510;2024-03-22T09:08:38;15.60;1.00
1592;DHT22;789;51.612;7.510;2024-03-22T09:11:05;15.70;1.00
1592;DHT22;789;51.612;7.510;2024-03-22T09:13:31;15.80;1.00
1592;DHT22;789;51.612;7.510;2024-03-22T09:16:01;15.80;1.00
1592;DHT22;789;51.612;7.510;2024-03-22T09:18:28;16.00;1.00
1592;DHT22;789;51.612;7.510;2024-03-22T09:20:55;16.20;1.00
1592;DHT22;789;51.612;7.510;2024-03-22T09:23:22;16.60;1.00
1592;DHT22;789;51.612;7.510;2024-03-22T09:25:49;16.90;1.00
1592;DHT22;789;51.612;7.510;2024-03-22T09:28:15;17.20;1.00
1592;DHT22;789;51.612;7.510;2024-03-22T09:30:41;17.40;1.00
1592;DHT22;789;51.612;7.510;2024-03-22T09:33:10;17.70;1.00
1592;DHT22;789;51.612;7.510;2024-03-22T09:35:37;17.90;1.00
1592;DHT22;789;51.612;7.510;2024-03-22T09:38:03;18.00;1.00
1592;DHT22;789;51.612;7.510;2024-03-22T09:40:30;18.00;1.00
1592;DHT22;789;51.612;7.510;2024-03-22T09:45:25;17.50;1.00
1592;DHT22;789;51.612;7.510;2024-03-22T09:47:53;18.00;1.00
1592;DHT22;789;51.612;7.510;2024-03-22T09:50:22;18.00;1.00
1592;DHT22;789;51.612;7.510;2024-03-22T09:52:48;18.00;1.00
1592;DHT22;789;51.612;7.510;2024-03-22T09:55:20;18.20;1.00
1592;DHT22;789;51.612;7.510;2024-03-22T09:57:48;18.30;1.00
1592;DHT22;789;51.612;7.510;2024-03-22T10:00:19;18.40;1.00
1592;DHT22;789;51.612;7.510;2024-03-22T10:02:46;18.30;1.00
1592;DHT22;789;51.612;7.510;2024-03-22T10:05:14;18.20;1.00
1592;DHT22;789;51.612;7.510;2024-03-22T10:07:41;18.30;1.00
1592;DHT22;789;51.612;7.510;2024-03-22T10:10:09;18.20;1.00
1592;DHT22;789;51.612;7.510;2024-03-22T10:12:35;18.10;1.00
1592;DHT22;789;51.612;7.510;2024-03-22T10:15:04;18.10;1.00
1592;DHT22;789;51.612;7.510;2024-03-22T10:17:30;18.10;1.00
1592;DHT22;789;51.612;7.510;2024-03-22T10:19:57;18.10;1.00
1592;DHT22;789;51.612;7.510;2024-03-22T10:22:25;18.20;1.00
1592;DHT22;789;51.612;7.510;2024-03-22T10:24:52;18.30;1.00
1592;DHT22;789;51.612;7.510;2024-03-22T10:27:19;18.30;1.00
1592;DHT22;789;51.612;7.510;2024-03-22T10:29:45;18.60;1.00
1592;DHT22;789;51.612;7.510;2024-03-22T10:32:13;19.00;1.00
1592;DHT22;789;51.612;7.510;2024-03-22T10:34:40;19.10;1.00
1592;DHT22;789;51.612;7.510;2024-03-22T10:37:08;19.50;1.00
1592;DHT22;789;51.612;7.510;2024-03-22T10:39:37;19.60;1.00
1592;DHT22;789;51.612;7.510;2024-03-22T10:42:06;19.70;1.00
1592;DHT22;789;51.612;7.510;2024-03-22T10:44:32;19.90;1.00
1592;DHT22;789;51.612;7.510;2024-03-22T10:47:01;19.80;1.00
1592;DHT22;789;51.612;7.510;2024-03-22T10:49:30;19.90;1.00
1592;DHT22;789;51.612;7.510;2024-03-22T10:52:01;19.80;1.00
1592;DHT22;789;51.612;7.510;2024-03-22T10:54:32;19.50;1.00
1592;DHT22;789;51.612;7.510;2024-03-22T10:57:00;19.30;1.00
1592;DHT22;789;51.612;7.510;2024-03-22T10:59:33;19.10;1.00
1592;DHT22;789;51.612;7.510;2024-03-22T11:02:04;18.90;1.00
1592;DHT22;789;51.612;7.510;2024-03-22T11:04:30;18.80;1.00
1592;DHT22;789;51.612;7.510;2024-03-22T11:06:57;18.60;1.00
1592;DHT22;789;51.612;7.510;2024-03-22T11:09:24;18.50;1.00
1592;DHT22;789;51.612;7.510;2024-03-22T11:11:52;18.40;1.00
1592;DHT22;789;51.612;7.510;2024-03-22T11:14:18;18.50;1.00
1592;DHT22;789;51.612;7.510;2024-03-22T11:16:47;18.50;1.00
1592;DHT22;789;51.612;7.510;2024-03-22T11:19:13;18.80;1.00
1592;DHT22;789;51.612;7.510;2024-03-22T11:21:39;19.20;1.00
1592;DHT22;789;51.612;7.510;2024-03-22T11:24:06;19.80;1.00
1592;DHT22;789;51.612;7.510;2024-03-22T11:26:32;20.40;1.00
1592;DHT22;789;51.612;7.510;2024-03-22T11:28:58;20.80;1.00
1592;DHT22;789;51.612;7.510;2024-03-22T11:31:26;21.30;1.00
1592;DHT22;789;51.612;7.510;2024-03-22T11:33:54;21.30;1.00
1592;DHT22;789;51.612;7.510;2024-03-22T11:36:21;21.60;1.00
1592;DHT22;789;51.612;7.510;2024-03-22T11:38:48;21.40;1.00
1592;DHT22;789;51.612;7.510;2024-03-22T11:41:17;21.40;1.00
1592;DHT22;789;51.612;7.510;2024-03-22T11:43:45;21.10;1.00
1592;DHT22;789;51.612;7.510;2024-03-22T11:46:14;20.80;1.00
1592;DHT22;789;51.612;7.510;2024-03-22T11:48:40;20.30;1.00
1592;DHT22;789;51.612;7.510;2024-03-22T11:51:09;19.90;1.00
1592;DHT22;789;51.612;7.510;2024-03-22T11:53:36;19.50;1.00
1592;DHT22;789;51.612;7.510;2024-03-22T11:56:37;19.20;1.00
1592;DHT22;789;51.612;7.510;2024-03-22T11:59:05;18.80;1.00
1592;DHT22;789;51.612;7.510;2024-03-22T12:01:33;18.60;1.00
1592;DHT22;789;51.612;7.510;2024-03-22T12:03:59;18.30;1.00
1592;DHT22;789;51.612;7.510;2024-03-22T12:06:27;18.10;1.00
1592;DHT22;789;51.612;7.510;2024-03-22T12:08:53;17.90;1.00
1592;DHT22;789;51.612;7.510;2024-03-22T12:11:19;17.70;1.00
1592;DHT22;789;51.612;7.510;2024-03-22T12:13:46;17.50;1.00
1592;DHT22;789;51.612;7.510;2024-03-22T12:16:15;17.50;1.00
1592;DHT22;789;51.612;7.510;2024-03-22T12:18:41;17.20;1.00
1592;DHT22;789;51.612;7.510;2024-03-22T12:21:08;17.00;1.00
1592;DHT22;789;51.612;7.510;2024-03-22T12:23:35;17.00;1.00
1592;DHT22;789;51.612;7.510;2024-03-22T12:26:03;16.90;1.00
1592;DHT22;789;51.612;7.510;2024-03-22T12:28:28;16.90;1.00
1592;DHT22;789;51.612;7.510;2024-03-22T12:30:55;16.80;1.00
1592;DHT22;789;51.612;7.510;2024-03-22T12:33:21;16.70;1.00
1592;DHT22;789;51.612;7.510;2024-03-22T12:35:48;16.70;1.00
1592;DHT22;789;51.612;7.510;2024-03-22T12:38:14;16.60;1.00
1592;DHT22;789;51.612;7.510;2024-03-22T12:40:42;16.50;1.00
1592;DHT22;789;51.612;7.510;2024-03-22T12:43:09;16.50;1.00
1592;DHT22;789;51.612;7.510;2024-03-22T12:45:37;16.40;1.00
1592;DHT22;789;51.612;7.510;2024-03-22T12:48:03;16.60;1.00
1592;DHT22;789;51.612;7.510;2024-03-22T12:50:30;16.20;1.00
1592;DHT22;789;51.612;7.510;2024-03-22T12:52:56;16.10;1.00
1592;DHT22;789;51.612;7.510;2024-03-22T12:55:23;16.10;1.00
1592;DHT22;789;51.612;7.510;2024-03-22T12:57:50;16.10;1.00
1592;DHT22;789;51.612;7.510;2024-03-22T13:00:17;16.10;1.00
1592;DHT22;789;51.612;7.510;2024-03-22T13:02:44;16.00;1.00
1592;DHT22;789;51.612;7.510;2024-03-22T13:05:11;16.00;1.00
1592;DHT22;789;51.612;7.510;2024-03-22T13:07:37;15.90;1.00
1592;DHT22;789;51.612;7.510;2024-03-22T13:10:05;15.90;1.00
1592;DHT22;789;51.612;7.510;2024-03-22T13:12:31;15.90;1.00
1592;DHT22;789;51.612;7.510;2024-03-22T13:15:01;15.90;1.00
1592;DHT22;789;51.612;7.510;2024-03-22T13:17:27;15.90;1.00
1592;DHT22;789;51.612;7.510;2024-03-22T13:19:53;15.90;1.00
1592;DHT22;789;51.612;7.510;2024-03-22T13:22:19;16.30;1.00
1592;DHT22;789;51.612;7.510;2024-03-22T13:24:46;15.80;1.00
1592;DHT22;789;51.612;7.510;2024-03-22T13:27:12;15.80;1.00
1592;DHT22;789;51.612;7.510;2024-03-22T13:29:39;15.80;1.00
1592;DHT22;789;51.612;7.510;2024-03-22T13:32:07;15.80;1.00
1592;DHT22;789;51.612;7.510;2024-03-22T13:34:34;15.80;1.00
1592;DHT22;789;51.612;7.510;2024-03-22T13:37:00;15.80;1.00
1592;DHT22;789;51.612;7.510;2024-03-22T13:39:27;15.90;1.00
1592;DHT22;789;51.612;7.510;2024-03-22T13:41:56;15.80;1.00
1592;DHT22;789;51.612;7.510;2024-03-22T13:44:24;15.80;1.00
1592;DHT22;789;51.612;7.510;2024-03-22T13:46:50;15.70;1.00
1592;DHT22;789;51.612;7.510;2024-03-22T13:49:19;15.60;1.00
1592;DHT22;789;51.612;7.510;2024-03-22T13:51:46;16.00;1.00
1592;DHT22;789;51.612;7.510;2024-03-22T13:54:14;15.40;1.00
1592;DHT22;789;51.612;7.510;2024-03-22T13:56:39;15.30;1.00
1592;DHT22;789;51.612;7.510;2024-03-22T13:59:06;15.30;1.00
1592;DHT22;789;51.612;7.510;2024-03-22T14:01:34;15.20;1.00
1592;DHT22;789;51.612;7.510;2024-03-22T14:04:01;15.20;1.00
1592;DHT22;789;51.612;7.510;2024-03-22T14:06:30;15.10;1.00
1592;DHT22;789;51.612;7.510;2024-03-22T14:08:57;15.00;1.00
1592;DHT22;789;51.612;7.510;2024-03-22T14:11:26;15.00;1.00
1592;DHT22;789;51.612;7.510;2024-03-22T14:13:53;15.00;1.00
1592;DHT22;789;51.612;7.510;2024-03-22T14:16:19;14.90;1.00
1592;DHT22;789;51.612;7.510;2024-03-22T14:18:46;14.90;1.00
1592;DHT22;789;51.612;7.510;2024-03-22T14:21:14;14.90;1.00
1592;DHT22;789;51.612;7.510;2024-03-22T14:23:46;14.80;1.00
1592;DHT22;789;51.612;7.510;2024-03-22T14:26:12;14.80;1.00
1592;DHT22;789;51.612;7.510;2024-03-22T14:28:39;14.80;1.00
1592;DHT22;789;51.612;7.510;2024-03-22T14:31:05;14.70;1.00
1592;DHT22;789;51.612;7.510;2024-03-22T14:33:34;14.70;1.00
1592;DHT22;789;51.612;7.510;2024-03-22T14:36:00;14.70;1.00
1592;DHT22;789;51.612;7.510;2024-03-22T14:38:27;14.60;1.00
1592;DHT22;789;51.612;7.510;2024-03-22T14:40:55;14.50;1.00
1592;DHT22;789;51.612;7.510;2024-03-22T14:43:21;14.40;1.00
1592;DHT22;789;51.612;7.510;2024-03-22T14:45:47;14.40;1.00
1592;DHT22;789;51.612;7.510;2024-03-22T14:48:14;14.40;1.00
1592;DHT22;789;51.612;7.510;2024-03-22T14:50:40;14.50;1.00
1592;DHT22;789;51.612;7.510;2024-03-22T14:53:07;14.40;1.00
1592;DHT22;789;51.612;7.510;2024-03-22T14:55:33;15.00;1.00
1592;DHT22;789;51.612;7.510;2024-03-22T14:58:03;14.40;1.00
1592;DHT22;789;51.612;7.510;2024-03-22T15:00:29;14.40;1.00
1592;DHT22;789;51.612;7.510;2024-03-22T15:02:56;14.40;1.00
1592;DHT22;789;51.612;7.510;2024-03-22T15:05:23;14.40;1.00
1592;DHT22;789;51.612;7.510;2024-03-22T15:07:49;14.30;1.00
1592;DHT22;789;51.612;7.510;2024-03-22T15:10:15;14.50;1.00
1592;DHT22;789;51.612;7.510;2024-03-22T15:12:42;14.30;1.00
1592;DHT22;789;51.612;7.510;2024-03-22T15:15:09;14.30;1.00
1592;DHT22;789;51.612;7.510;2024-03-22T15:17:36;14.30;1.00
1592;DHT22;789;51.612;7.510;2024-03-22T15:20:03;14.20;1.00
1592;DHT22;789;51.612;7.510;2024-03-22T15:22:31;14.20;1.00
1592;DHT22;789;51.612;7.510;2024-03-22T15:24:58;14.60;1.00
1592;DHT22;789;51.612;7.510;2024-03-22T15:27:24;14.10;1.00
1592;DHT22;789;51.612;7.510;2024-03-22T15:29:53;14.10;1.00
1592;DHT22;789;51.612;7.510;2024-03-22T15:32:20;14.00;1.00
1592;DHT22;789;51.612;7.510;2024-03-22T15:34:49;14.00;1.00
1592;DHT22;789;51.612;7.510;2024-03-22T15:37:14;14.10;1.00
1592;DHT22;789;51.612;7.510;2024-03-22T15:39:43;14.00;1.00
1592;DHT22;789;51.612;7.510;2024-03-22T15:42:09;14.10;1.00
1592;DHT22;789;51.612;7.510;2024-03-22T15:44:35;14.20;1.00
1592;DHT22;789;51.612;7.510;2024-03-22T15:47:01;14.10;1.00
1592;DHT22;789;51.612;7.510;2024-03-22T15:49:29;14.30;1.00
1592;DHT22;789;51.612;7.510;2024-03-22T15:51:55;14.20;1.00
1592;DHT22;789;51.612;7.510;2024-03-22T15:54:22;14.20;1.00
1592;DHT22;789;51.612;7.510;2024-03-22T15:56:48;14.20;1.00
1592;DHT22;789;51.612;7.510;2024-03-22T15:59:15;14.20;1.00
1592;DHT22;789;51.612;7.510;2024-03-22T16:01:40;14.10;1.00
1592;DHT22;789;51.612;7.510;2024-03-22T16:04:08;14.50;1.00
1592;DHT22;789;51.612;7.510;2024-03-22T16:06:35;14.50;1.00
1592;DHT22;789;51.612;7.510;2024-03-22T16:09:02;14.10;1.00
1592;DHT22;789;51.612;7.510;2024-03-22T16:11:28;14.10;1.00
1592;DHT22;789;51.612;7.510;2024-03-22T16:13:55;14.10;1.00
1592;DHT22;789;51.612;7.510;2024-03-22T16:16:21;14.10;1.00
1592;DHT22;789;51.612;7.510;2024-03-22T16:18:47;14.00;1.00
1592;DHT22;789;51.612;7.510;2024-03-22T16:21:13;14.00;1.00
1592;DHT22;789;51.612;7.510;2024-03-22T16:23:41;14.10;1.00
1592;DHT22;789;51.612;7.510;2024-03-22T16:26:08;14.40;1.00
1592;DHT22;789;51.612;7.510;2024-03-22T16:28:35;14.00;1.00
1592;DHT22;789;51.612;7.510;2024-03-22T16:31:01;14.30;1.00
1592;DHT22;789;51.612;7.510;2024-03-22T16:33:28;13.90;1.00